Time;durP1;ratioP1;P1;durP2;ratioP2;P2;SDS_P1;SDS_P2;PMS_P1;PMS_P2;Temp;Humidity;BMP_temperature;BMP_pressure;BME280_temperature;BME280_humidity;BME280_pressure;Samples;Min_cycle;Max_cycle;Signal;HPM_P1;HPM_P2
2022/11/07 00:02:26;;;;;;;5.38;2.78;;;9.50;99.90;;;;;;4996192;28;20041;-80
2022/11/07 00:04:53;;;;;;;3.40;2.25;;;9.60;99.90;;;;;;5029782;28;20390;-80
2022/11/07 00:07:19;;;;;;;4.75;2.55;;;9.60;99.90;;;;;;4988367;28;20057;-80
2022/11/07 00:09:45;;;;;;;4.13;2.55;;;9.60;99.90;;;;;;5005848;28;20049;-80
2022/11/07 00:12:11;;;;;;;3.40;2.10;;;9.60;99.90;;;;;;4987128;28;20049;-80
2022/11/07 00:14:37;;;;;;;3.72;2.35;;;9.60;99.90;;;;;;5013909;28;20037;-80
2022/11/07 00:17:04;;;;;;;4.13;3.03;;;9.60;99.90;;;;;;5001041;28;20045;-80
2022/11/07 00:19:30;;;;;;;5.95;3.40;;;9.60;99.90;;;;;;5014155;28;20037;-81
2022/11/07 00:21:56;;;;;;;10.00;6.47;;;9.60;99.90;;;;;;4999657;28;20044;-81
2022/11/07 00:24:22;;;;;;;8.18;4.47;;;9.60;99.90;;;;;;5012803;28;20049;-81
2022/11/07 00:26:48;;;;;;;4.78;3.05;;;9.70;99.90;;;;;;5008830;28;20037;-81
2022/11/07 00:29:17;;;;;;;4.22;2.33;;;9.70;99.90;;;;;;5008417;28;20046;-81
2022/11/07 00:31:44;;;;;;;6.05;2.85;;;9.60;99.90;;;;;;4991260;28;20038;-81
2022/11/07 00:34:10;;;;;;;3.35;2.35;;;9.60;99.90;;;;;;5015941;28;20402;-81
2022/11/07 00:36:36;;;;;;;3.65;2.85;;;9.70;99.90;;;;;;5011381;28;20030;-80
2022/11/07 00:39:04;;;;;;;6.97;2.22;;;9.60;99.90;;;;;;5006491;28;20041;-82
2022/11/07 00:41:30;;;;;;;5.00;2.65;;;9.70;99.90;;;;;;5003464;28;20407;-80
2022/11/07 00:43:56;;;;;;;4.60;2.42;;;9.60;99.90;;;;;;5035581;28;20390;-81
2022/11/07 00:46:23;;;;;;;3.92;2.38;;;9.70;99.90;;;;;;5018968;28;20037;-81
2022/11/07 00:48:49;;;;;;;4.65;2.50;;;9.70;99.90;;;;;;5045092;28;20036;-80
2022/11/07 00:51:22;;;;;;;4.78;2.15;;;9.70;99.90;;;;;;5024725;28;20033;-82
2022/11/07 00:53:49;;;;;;;3.50;2.20;;;9.70;99.90;;;;;;5025234;28;20029;-80
2022/11/07 00:56:18;;;;;;;4.07;2.13;;;9.70;99.90;;;;;;5017604;28;20471;-81
2022/11/07 00:58:45;;;;;;;7.22;2.30;;;9.70;99.90;;;;;;5037450;28;20057;-81
2022/11/07 01:01:18;;;;;;;4.97;2.13;;;9.70;99.90;;;;;;5003555;28;20045;-81
2022/11/07 01:06:32;;;;;;;6.13;2.38;;;9.80;99.90;;;;;;5018858;28;20036;-80
2022/11/07 01:08:58;;;;;;;5.10;2.30;;;9.70;99.90;;;;;;5028808;28;20060;-80
2022/11/07 01:11:26;;;;;;;2.67;2.03;;;9.80;99.90;;;;;;5021083;28;20037;-80
2022/11/07 01:13:57;;;;;;;3.20;2.30;;;9.80;99.90;;;;;;5029116;28;20387;-79
2022/11/07 01:16:23;;;;;;;6.13;2.80;;;9.80;99.90;;;;;;5034442;28;20040;-79
2022/11/07 01:18:49;;;;;;;3.38;2.22;;;9.80;99.90;;;;;;5003629;28;20042;-79
2022/11/07 01:21:16;;;;;;;6.57;2.55;;;9.90;99.90;;;;;;5032606;28;20029;-80
2022/11/07 01:23:42;;;;;;;3.50;2.10;;;9.90;99.90;;;;;;5019367;28;20030;-79
2022/11/07 01:26:10;;;;;;;4.35;2.00;;;9.90;99.90;;;;;;5034151;28;20036;-80
2022/11/07 01:28:37;;;;;;;4.88;2.13;;;9.90;99.90;;;;;;5005499;28;20053;-79
2022/11/07 01:31:09;;;;;;;4.75;2.17;;;9.90;99.90;;;;;;5026724;28;20360;-79
2022/11/07 01:33:36;;;;;;;3.70;1.88;;;9.90;99.90;;;;;;5034714;28;20033;-79
2022/11/07 01:36:08;;;;;;;3.30;1.98;;;9.90;99.90;;;;;;5021439;28;20029;-79
2022/11/07 01:38:36;;;;;;;4.35;2.40;;;9.90;99.90;;;;;;5018780;28;20491;-79
2022/11/07 01:41:20;;;;;;;3.38;1.77;;;9.90;99.90;;;;;;5029071;28;20033;-78
2022/11/07 01:43:56;;;;;;;4.05;1.83;;;9.90;99.90;;;;;;5018431;28;20026;-78
2022/11/07 01:46:55;;;;;;;5.40;2.63;;;10.00;99.90;;;;;;5002501;28;20049;-79
2022/11/07 01:49:38;;;;;;;3.65;1.83;;;9.90;99.90;;;;;;4996711;28;20050;-79
2022/11/07 01:52:46;;;;;;;3.47;1.77;;;10.00;99.90;;;;;;5032221;28;20030;-87
2022/11/07 01:55:23;;;;;;;3.47;1.92;;;10.00;99.90;;;;;;4922437;29;20039;-79
2022/11/07 01:58:01;;;;;;;3.30;1.98;;;10.00;99.90;;;;;;4930491;29;20060;-79
2022/11/07 02:00:29;;;;;;;4.55;1.67;;;10.00;99.90;;;;;;4911088;29;20051;-79
2022/11/07 02:03:04;;;;;;;4.72;1.65;;;10.10;99.90;;;;;;4917571;29;20055;-78
2022/11/07 02:05:46;;;;;;;3.63;1.38;;;10.10;99.90;;;;;;4909752;29;20040;-79
2022/11/07 02:08:14;;;;;;;10.90;2.45;;;10.10;99.90;;;;;;4912105;29;20051;-79
2022/11/07 02:10:42;;;;;;;3.50;1.25;;;10.10;99.90;;;;;;4930825;29;20032;-79
2022/11/07 02:13:10;;;;;;;2.60;1.52;;;10.10;99.90;;;;;;4905477;29;20067;-79
2022/11/07 02:15:37;;;;;;;3.63;2.13;;;10.10;99.90;;;;;;4915047;29;20036;-79
2022/11/07 02:18:04;;;;;;;4.22;1.90;;;10.10;99.90;;;;;;4928512;29;20043;-80
2022/11/07 02:20:30;;;;;;;2.72;1.40;;;10.10;99.90;;;;;;4893082;29;20477;-80
2022/11/07 02:23:02;;;;;;;3.45;1.88;;;10.10;99.90;;;;;;4896122;29;20177;-79
2022/11/07 02:25:28;;;;;;;3.42;1.73;;;10.10;99.90;;;;;;4938690;28;20046;-79
2022/11/07 02:27:58;;;;;;;2.85;1.70;;;10.10;99.90;;;;;;4996249;28;20034;-79
2022/11/07 02:30:32;;;;;;;3.97;1.83;;;10.10;99.90;;;;;;4999230;28;20491;-79
2022/11/07 02:32:59;;;;;;;4.55;1.50;;;10.10;99.90;;;;;;5004205;28;20308;-79
2022/11/07 02:35:40;;;;;;;4.88;1.98;;;10.10;99.90;;;;;;5014213;28;20037;-79
2022/11/07 02:38:12;;;;;;;;;;;10.00;99.90;;;;;;4998344;28;20049;-80
2022/11/07 02:40:39;;;;;;;3.85;1.80;;;10.00;99.90;;;;;;4998665;28;19909;-79
2022/11/07 02:43:09;;;;;;;3.33;1.88;;;9.90;99.90;;;;;;5022321;28;20056;-81
2022/11/07 02:45:38;;;;;;;2.40;1.55;;;9.80;99.90;;;;;;5015942;28;20383;-79
2022/11/07 02:48:05;;;;;;;3.42;2.13;;;9.70;99.90;;;;;;5016223;28;20476;-79
2022/11/07 02:50:31;;;;;;;4.10;1.88;;;9.60;99.90;;;;;;5030717;28;20052;-78
2022/11/07 02:52:57;;;;;;;5.13;2.30;;;9.50;99.90;;;;;;4997946;28;20052;-79
2022/11/07 02:55:23;;;;;;;4.90;2.22;;;9.40;99.90;;;;;;5025191;28;20033;-79
2022/11/07 02:57:50;;;;;;;3.88;2.05;;;9.40;99.90;;;;;;5005181;28;20065;-78
2022/11/07 03:00:16;;;;;;;4.22;2.05;;;9.30;99.90;;;;;;5008226;28;20041;-79
2022/11/07 03:02:45;;;;;;;3.17;1.65;;;9.30;99.90;;;;;;5031514;28;20052;-79
2022/11/07 03:05:14;;;;;;;4.07;2.47;;;9.30;99.90;;;;;;5023085;28;20407;-79
2022/11/07 03:07:41;;;;;;;4.00;1.98;;;9.30;99.90;;;;;;5012493;28;20038;-80
2022/11/07 03:10:09;;;;;;;3.70;2.30;;;9.30;99.90;;;;;;5011120;28;20038;-79
2022/11/07 03:12:36;;;;;;;6.63;2.72;;;9.40;99.90;;;;;;4994804;28;20045;-80
2022/11/07 03:15:04;;;;;;;4.90;2.83;;;9.40;99.90;;;;;;5019289;28;20040;-80
2022/11/07 03:17:30;;;;;;;3.72;1.90;;;9.50;99.90;;;;;;5012252;28;20452;-79
2022/11/07 03:19:56;;;;;;;3.58;1.92;;;9.50;99.90;;;;;;4993590;28;20057;-80
2022/11/07 03:22:22;;;;;;;4.45;1.77;;;9.50;99.90;;;;;;5019205;28;20034;-80
2022/11/07 03:24:49;;;;;;;3.30;2.28;;;9.50;99.90;;;;;;4990713;28;20037;-80
2022/11/07 03:27:15;;;;;;;7.03;2.30;;;9.60;99.90;;;;;;4990781;28;20048;-81
2022/11/07 03:29:41;;;;;;;11.00;2.03;;;9.60;99.90;;;;;;5012300;28;20046;-80
2022/11/07 03:32:08;;;;;;;5.68;2.00;;;9.60;99.90;;;;;;5018336;28;20029;-79
2022/11/07 03:34:34;;;;;;;8.15;4.13;;;9.60;99.90;;;;;;5005801;28;20041;-79
2022/11/07 03:37:00;;;;;;;4.18;2.70;;;9.60;99.90;;;;;;4983093;28;20049;-79
2022/11/07 03:39:26;;;;;;;4.03;2.20;;;9.70;99.90;;;;;;4988333;28;20255;-79
2022/11/07 03:41:52;;;;;;;3.55;2.28;;;9.70;99.90;;;;;;4986695;28;20037;-80
2022/11/07 03:44:19;;;;;;;5.97;2.22;;;9.70;99.90;;;;;;5013696;28;20034;-80
2022/11/07 03:46:45;;;;;;;5.63;2.17;;;9.60;99.90;;;;;;5030526;28;20033;-79
2022/11/07 03:49:11;;;;;;;5.85;2.47;;;9.70;99.90;;;;;;5013335;28;20041;-79
2022/11/07 03:51:37;;;;;;;4.65;2.03;;;9.80;99.90;;;;;;4999112;28;20049;-79
2022/11/07 03:54:03;;;;;;;3.70;2.28;;;9.80;99.90;;;;;;4997909;28;20463;-80
2022/11/07 03:56:29;;;;;;;5.18;2.78;;;9.80;99.90;;;;;;5013213;28;20041;-79
2022/11/07 03:58:56;;;;;;;5.32;2.85;;;9.90;99.90;;;;;;5012911;28;20050;-83
2022/11/07 04:01:22;;;;;;;4.32;2.88;;;9.90;99.90;;;;;;5022328;28;20033;-80
2022/11/07 04:03:48;;;;;;;4.68;1.80;;;9.80;99.90;;;;;;5027716;28;20030;-79
2022/11/07 04:06:14;;;;;;;3.95;2.20;;;9.80;99.90;;;;;;5030118;28;20037;-80
2022/11/07 04:08:40;;;;;;;7.45;2.72;;;9.80;99.90;;;;;;5019977;28;20033;-79
2022/11/07 04:11:06;;;;;;;4.05;2.10;;;9.90;99.90;;;;;;5004107;28;20037;-80
2022/11/07 04:19:03;;;;;;;4.93;2.40;;;9.80;99.90;;;;;;5033154;28;20049;-79
2022/11/07 04:21:29;;;;;;;6.22;2.25;;;9.90;99.90;;;;;;5016568;28;20033;-79
2022/11/07 04:23:55;;;;;;;3.58;2.22;;;9.80;99.90;;;;;;5028336;28;20040;-79
2022/11/07 04:29:16;;;;;;;5.13;2.40;;;9.90;99.90;;;;;;4937996;28;20071;-80
2022/11/07 04:31:42;;;;;;;6.03;2.45;;;10.00;99.90;;;;;;5034140;28;20470;-80
2022/11/07 04:34:09;;;;;;;4.30;2.53;;;10.00;99.90;;;;;;5004933;28;20037;-79
2022/11/07 04:36:35;;;;;;;5.88;2.00;;;10.00;99.90;;;;;;5034289;28;20056;-79
2022/11/07 04:39:01;;;;;;;4.40;1.73;;;10.00;99.90;;;;;;5009376;28;20042;-80
2022/11/07 04:41:27;;;;;;;4.82;1.63;;;10.00;99.90;;;;;;5021029;28;20038;-80
2022/11/07 04:43:53;;;;;;;3.28;1.65;;;10.10;99.90;;;;;;5011569;28;20037;-79
2022/11/07 04:46:22;;;;;;;6.65;2.33;;;10.10;99.90;;;;;;4990784;28;20038;-80
2022/11/07 04:48:48;;;;;;;3.40;1.38;;;10.20;99.90;;;;;;5030844;28;20092;-80
2022/11/07 04:51:17;;;;;;;5.85;1.70;;;10.30;99.90;;;;;;4999791;28;20380;-79
2022/11/07 04:53:43;;;;;;;5.13;1.63;;;10.40;99.90;;;;;;5008565;28;20037;-79
2022/11/07 04:56:10;;;;;;;6.03;1.75;;;10.50;99.90;;;;;;5018599;28;20479;-79
2022/11/07 04:58:36;;;;;;;4.85;1.65;;;10.50;99.90;;;;;;5012371;28;20053;-79
2022/11/07 05:01:02;;;;;;;5.47;1.73;;;10.50;99.90;;;;;;5013015;28;20495;-78
2022/11/07 05:03:28;;;;;;;3.03;1.60;;;10.50;99.90;;;;;;5018837;28;20037;-78
2022/11/07 05:05:55;;;;;;;6.20;1.90;;;10.50;99.90;;;;;;5006349;28;20030;-79
2022/11/07 05:08:21;;;;;;;4.47;1.90;;;10.50;99.90;;;;;;4996412;28;20038;-78
2022/11/07 05:10:48;;;;;;;5.22;2.20;;;10.40;99.90;;;;;;4995652;28;20459;-78
2022/11/07 05:13:14;;;;;;;7.70;1.52;;;10.50;99.90;;;;;;5006280;28;20033;-79
2022/11/07 05:15:40;;;;;;;5.13;2.13;;;10.50;99.90;;;;;;5013249;28;20034;-78
2022/11/07 05:18:07;;;;;;;3.70;1.77;;;10.50;99.90;;;;;;5014159;28;20026;-78
2022/11/07 05:20:36;;;;;;;3.95;2.38;;;10.40;99.90;;;;;;5001362;28;20042;-81
2022/11/07 05:23:17;;;;;;;4.43;2.17;;;10.40;99.90;;;;;;5005239;28;20398;-79
2022/11/07 05:25:46;;;;;;;4.03;1.83;;;10.40;99.90;;;;;;4998707;28;20052;-79
2022/11/07 05:28:23;;;;;;;8.75;1.77;;;10.40;99.90;;;;;;4979085;28;20042;-79
2022/11/07 05:30:50;;;;;;;4.95;2.03;;;10.40;99.90;;;;;;5011001;28;20487;-79
2022/11/07 05:33:17;;;;;;;4.10;1.67;;;10.40;99.90;;;;;;4973809;28;20042;-80
2022/11/07 05:35:45;;;;;;;6.07;1.50;;;10.50;99.90;;;;;;5007681;28;20050;-80
2022/11/07 05:38:11;;;;;;;5.85;1.77;;;10.50;99.90;;;;;;5002537;28;20042;-79
2022/11/07 05:40:39;;;;;;;5.88;1.58;;;10.50;99.90;;;;;;5013957;28;20133;-79
2022/11/07 05:43:12;;;;;;;4.03;1.45;;;10.50;99.90;;;;;;5015390;28;20033;-79
2022/11/07 05:45:40;;;;;;;10.43;2.03;;;10.60;99.90;;;;;;5015215;28;20387;-77
2022/11/07 05:48:12;;;;;;;4.10;1.50;;;10.60;99.90;;;;;;5052373;28;20028;-78
2022/11/07 05:50:39;;;;;;;2.85;1.40;;;10.60;99.90;;;;;;5032958;28;20040;-77
2022/11/07 05:53:05;;;;;;;2.95;1.10;;;10.70;99.90;;;;;;5037001;28;20030;-76
2022/11/07 05:55:32;;;;;;;3.80;1.33;;;10.70;99.90;;;;;;5008483;28;20041;-75
2022/11/07 05:57:58;;;;;;;3.65;1.48;;;10.80;99.90;;;;;;5015556;28;20033;-75
2022/11/07 06:00:25;;;;;;;4.93;1.35;;;10.80;99.90;;;;;;4994233;28;20415;-76
2022/11/07 06:02:56;;;;;;;4.07;1.45;;;10.80;99.90;;;;;;5013169;28;20041;-77
2022/11/07 06:05:22;;;;;;;;;;;10.70;99.90;;;;;;5005338;28;20386;-76
2022/11/07 06:07:48;;;;;;;3.33;1.30;;;10.70;99.90;;;;;;4987818;28;19910;-79
2022/11/07 06:10:15;;;;;;;4.72;1.13;;;10.80;99.90;;;;;;5011333;28;20033;-82
2022/11/07 06:12:41;;;;;;;4.07;1.27;;;10.80;99.90;;;;;;4996317;28;20041;-77
2022/11/07 06:15:07;;;;;;;4.53;1.63;;;10.90;99.90;;;;;;5013763;28;20038;-76
2022/11/07 06:17:33;;;;;;;2.40;1.00;;;10.90;99.90;;;;;;5029606;28;20021;-78
2022/11/07 06:20:00;;;;;;;5.78;1.15;;;10.90;99.90;;;;;;5019661;28;20048;-77
2022/11/07 06:22:26;;;;;;;3.50;1.15;;;11.00;99.90;;;;;;5010375;28;20044;-79
2022/11/07 06:24:52;;;;;;;5.65;1.48;;;11.00;99.90;;;;;;5013436;28;20030;-77
2022/11/07 06:27:18;;;;;;;16.33;1.55;;;11.00;99.90;;;;;;5013576;28;20040;-78
2022/11/07 06:29:44;;;;;;;6.10;2.25;;;11.00;99.90;;;;;;5014784;28;20041;-76
2022/11/07 06:32:10;;;;;;;5.13;1.75;;;11.10;99.90;;;;;;5019542;28;20037;-77
2022/11/07 06:34:37;;;;;;;2.28;1.10;;;11.10;99.90;;;;;;5012089;28;20014;-77
2022/11/07 06:37:03;;;;;;;5.43;1.40;;;11.10;99.90;;;;;;5012273;28;20026;-77
2022/11/07 06:39:29;;;;;;;3.50;1.60;;;11.10;99.90;;;;;;5030226;28;20034;-77
2022/11/07 06:41:55;;;;;;;5.05;1.27;;;11.10;99.90;;;;;;5004312;28;20037;-76
2022/11/07 06:44:21;;;;;;;5.00;2.45;;;11.00;99.90;;;;;;5004547;28;20045;-77
2022/11/07 06:46:48;;;;;;;3.25;1.60;;;11.00;99.90;;;;;;5009297;28;20032;-77
2022/11/07 06:49:14;;;;;;;4.63;2.13;;;10.90;99.90;;;;;;4995017;28;20450;-77
2022/11/07 06:51:41;;;;;;;5.53;1.50;;;10.80;99.90;;;;;;5028564;28;20030;-77
2022/11/07 06:54:07;;;;;;;5.88;1.40;;;10.80;99.90;;;;;;5013641;28;20037;-77
2022/11/07 06:56:33;;;;;;;11.07;1.55;;;10.80;99.90;;;;;;5033897;28;20025;-78
2022/11/07 06:58:59;;;;;;;5.10;1.00;;;10.90;99.90;;;;;;5013244;28;20072;-76
2022/11/07 07:01:26;;;;;;;4.55;1.38;;;10.90;99.90;;;;;;5011235;28;20034;-77
2022/11/07 07:03:52;;;;;;;4.47;1.17;;;10.90;99.90;;;;;;5015291;28;20036;-76
2022/11/07 07:06:18;;;;;;;6.78;3.08;;;10.90;99.90;;;;;;5013935;28;20045;-78
2022/11/07 07:08:45;;;;;;;6.38;2.58;;;11.00;99.90;;;;;;5020895;28;20033;-77
2022/11/07 07:11:14;;;;;;;5.47;1.52;;;11.00;99.90;;;;;;5017332;28;20021;-77
2022/11/07 07:13:40;;;;;;;7.75;1.50;;;11.00;99.90;;;;;;5013109;28;20440;-77
2022/11/07 07:16:07;;;;;;;8.30;2.80;;;11.10;99.90;;;;;;5012944;28;20034;-77
2022/11/07 07:18:34;;;;;;;6.35;1.67;;;11.10;99.90;;;;;;5012399;28;20022;-76
2022/11/07 07:21:12;;;;;;;4.88;1.23;;;11.20;99.90;;;;;;5000325;28;20038;-76
2022/11/07 07:23:39;;;;;;;3.60;1.77;;;11.30;99.90;;;;;;4983438;28;20052;-76
2022/11/07 07:26:08;;;;;;;3.00;1.15;;;11.30;99.90;;;;;;5012035;28;20463;-77
2022/11/07 07:28:36;;;;;;;3.50;1.50;;;11.40;99.90;;;;;;5013537;28;20040;-80
2022/11/07 07:31:14;;;;;;;4.55;1.60;;;11.40;99.90;;;;;;5007396;28;20049;-76
2022/11/07 07:33:44;;;;;;;4.90;1.70;;;11.50;99.90;;;;;;5030184;28;20033;-77
2022/11/07 07:36:12;;;;;;;4.82;1.60;;;11.60;99.90;;;;;;5020061;28;20037;-76
2022/11/07 07:38:38;;;;;;;5.90;1.42;;;11.70;99.90;;;;;;5026257;28;20046;-77
2022/11/07 07:41:05;;;;;;;5.68;1.20;;;11.90;99.90;;;;;;5013454;28;20034;-77
2022/11/07 07:43:32;;;;;;;4.00;1.50;;;12.00;99.90;;;;;;4995067;28;20040;-77
2022/11/07 07:46:04;;;;;;;6.32;1.27;;;12.00;99.90;;;;;;5020544;28;20025;-77
2022/11/07 07:48:30;;;;;;;6.00;1.58;;;12.10;99.90;;;;;;5015767;28;20030;-77
2022/11/07 07:50:57;;;;;;;4.15;1.55;;;12.00;99.90;;;;;;4998313;28;20340;-77
2022/11/07 07:53:24;;;;;;;5.95;1.52;;;12.10;99.90;;;;;;5026083;28;20025;-77
2022/11/07 07:55:58;;;;;;;6.50;2.20;;;12.20;99.90;;;;;;5025995;28;20029;-77
2022/11/07 07:58:26;;;;;;;4.82;1.58;;;12.20;99.90;;;;;;4976859;28;20041;-79
2022/11/07 08:00:53;;;;;;;5.20;2.25;;;12.30;99.90;;;;;;5014612;28;20497;-77
2022/11/07 08:03:19;;;;;;;4.55;1.60;;;12.30;99.90;;;;;;5003959;28;20028;-84
2022/11/07 08:05:55;;;;;;;3.33;1.20;;;12.40;99.90;;;;;;5004002;28;20029;-77
2022/11/07 08:08:22;;;;;;;11.25;2.13;;;12.40;99.90;;;;;;5012449;28;20033;-78
2022/11/07 08:10:54;;;;;;;5.90;1.70;;;12.30;99.90;;;;;;5014435;28;20053;-77
2022/11/07 08:13:22;;;;;;;7.18;1.83;;;12.40;99.90;;;;;;5015521;28;20017;-79
2022/11/07 08:15:50;;;;;;;5.55;1.38;;;12.30;99.90;;;;;;5015875;28;20033;-79
2022/11/07 08:18:18;;;;;;;4.47;1.45;;;12.30;99.90;;;;;;5005505;28;20034;-78
2022/11/07 08:20:45;;;;;;;6.85;1.70;;;12.30;99.90;;;;;;5014244;28;20029;-79
2022/11/07 08:23:11;;;;;;;4.28;1.42;;;12.30;99.90;;;;;;4998995;28;20038;-77
2022/11/07 08:25:38;;;;;;;4.60;1.20;;;12.30;99.90;;;;;;5019101;28;20030;-77
2022/11/07 08:28:05;;;;;;;7.38;1.92;;;12.30;99.90;;;;;;5008153;28;20041;-78
2022/11/07 08:30:31;;;;;;;5.70;1.55;;;12.30;99.90;;;;;;5014157;28;20045;-78
2022/11/07 08:33:02;;;;;;;4.57;1.42;;;12.30;99.90;;;;;;5013108;28;20038;-78
2022/11/07 08:35:31;;;;;;;;;;;12.30;99.90;;;;;;5018108;28;20037;-79
2022/11/07 08:37:58;;;;;;;5.75;1.40;;;12.30;99.90;;;;;;5012940;28;19905;-78
2022/11/07 08:40:25;;;;;;;7.38;1.25;;;12.40;99.90;;;;;;5001437;28;20386;-79
2022/11/07 08:42:51;;;;;;;6.25;1.92;;;12.50;99.90;;;;;;4999280;28;20042;-78
2022/11/07 08:45:17;;;;;;;3.47;1.63;;;12.60;99.90;;;;;;5018072;28;20050;-78
2022/11/07 08:47:43;;;;;;;7.15;1.77;;;12.60;99.90;;;;;;5016186;28;20030;-78
2022/11/07 08:50:10;;;;;;;11.13;1.33;;;12.70;99.90;;;;;;5024338;28;20037;-78
2022/11/07 08:52:37;;;;;;;8.80;2.03;;;12.70;99.90;;;;;;5028326;28;20029;-79
2022/11/07 08:55:04;;;;;;;6.18;1.30;;;12.80;99.90;;;;;;5033310;28;20025;-78
2022/11/07 08:57:30;;;;;;;3.72;1.50;;;12.80;99.90;;;;;;5001195;28;20030;-78
2022/11/07 08:59:56;;;;;;;3.97;1.70;;;12.80;99.90;;;;;;5024735;28;20483;-77
2022/11/07 09:02:23;;;;;;;6.97;1.75;;;12.80;99.90;;;;;;5020596;28;20030;-78
2022/11/07 09:04:49;;;;;;;10.65;2.70;;;12.80;99.90;;;;;;5021423;28;20026;-79
2022/11/07 09:07:15;;;;;;;5.20;1.25;;;12.90;99.90;;;;;;5014050;28;20026;-76
2022/11/07 09:09:41;;;;;;;5.53;1.25;;;12.90;99.90;;;;;;5012664;28;20049;-77
2022/11/07 09:12:07;;;;;;;6.38;1.77;;;12.80;99.90;;;;;;4996621;28;20463;-76
2022/11/07 09:14:34;;;;;;;8.10;1.70;;;12.80;99.90;;;;;;5001420;28;20033;-77
2022/11/07 09:17:00;;;;;;;10.45;1.40;;;12.80;99.90;;;;;;5002786;28;20026;-77
2022/11/07 09:19:26;;;;;;;6.05;1.60;;;12.80;99.90;;;;;;5010468;28;20041;-78
2022/11/07 09:21:52;;;;;;;9.30;1.83;;;12.70;99.90;;;;;;5020390;28;20029;-77
2022/11/07 09:24:18;;;;;;;5.32;1.55;;;12.70;99.90;;;;;;5018154;28;20030;-77
2022/11/07 09:26:44;;;;;;;6.63;2.22;;;12.70;99.90;;;;;;4997929;28;20038;-78
2022/11/07 09:29:11;;;;;;;7.18;1.50;;;12.60;99.90;;;;;;5015071;28;20455;-78
2022/11/07 09:31:37;;;;;;;3.75;1.40;;;12.60;99.90;;;;;;5019824;28;20057;-77
2022/11/07 09:34:03;;;;;;;5.43;1.67;;;12.60;99.90;;;;;;5013678;28;20038;-77
2022/11/07 09:36:29;;;;;;;8.15;1.77;;;12.60;99.90;;;;;;5004473;28;20038;-77
2022/11/07 09:38:58;;;;;;;3.55;1.45;;;12.60;99.90;;;;;;5012063;28;20447;-77
2022/11/07 09:41:45;;;;;;;8.88;3.63;;;12.50;99.90;;;;;;5026245;28;20386;-77
2022/11/07 09:44:38;;;;;;;14.38;6.30;;;12.50;99.90;;;;;;5013966;28;20037;-76
2022/11/07 09:47:17;;;;;;;8.70;3.10;;;12.50;99.90;;;;;;5003937;28;20044;-77
2022/11/07 09:49:48;;;;;;;36.28;20.95;;;12.50;99.90;;;;;;5031210;28;20050;-77
2022/11/07 09:52:53;;;;;;;29.67;15.10;;;12.60;99.90;;;;;;5032633;28;20471;-78
2022/11/07 09:55:23;;;;;;;33.90;14.23;;;12.70;99.90;;;;;;5017773;28;20030;-78
2022/11/07 09:57:54;;;;;;;33.13;16.13;;;12.80;99.90;;;;;;5028117;28;20025;-77
2022/11/07 10:00:21;;;;;;;21.00;9.25;;;12.90;99.90;;;;;;5018256;28;20296;-76
2022/11/07 10:02:52;;;;;;;27.92;12.10;;;13.00;99.90;;;;;;5024162;28;20034;-79
2022/11/07 10:05:36;;;;;;;44.28;21.60;;;13.10;99.90;;;;;;4998177;28;20045;-77
2022/11/07 10:08:33;;;;;;;22.58;10.40;;;13.10;99.90;;;;;;5015657;28;20030;-76
2022/11/07 10:11:25;;;;;;;35.67;19.02;;;13.20;99.90;;;;;;4987435;28;20143;-77
2022/11/07 10:14:31;;;;;;;17.42;8.82;;;13.30;99.90;;;;;;5031752;28;20033;-77
2022/11/07 10:17:10;;;;;;;28.30;15.77;;;13.30;99.90;;;;;;4978593;28;20042;-78
2022/11/07 10:20:14;;;;;;;11.95;4.50;;;13.40;99.90;;;;;;5001792;28;20133;-77
2022/11/07 10:22:46;;;;;;;14.63;8.18;;;13.50;99.90;;;;;;5007197;28;20038;-76
2022/11/07 10:25:22;;;;;;;18.60;9.38;;;13.60;99.90;;;;;;5020479;28;20041;-77
2022/11/07 10:28:14;;;;;;;11.98;6.00;;;13.70;99.90;;;;;;5012788;28;20030;-77
2022/11/07 10:30:45;;;;;;;44.60;23.60;;;13.80;99.90;;;;;;4992334;28;20050;-78
2022/11/07 10:33:26;;;;;;;;;;;13.90;99.90;;;;;;5013904;28;20033;-77
2022/11/07 10:35:58;;;;;;;27.48;13.80;;;14.00;99.60;;;;;;5015658;28;19912;-78
2022/11/07 10:38:27;;;;;;;25.27;9.35;;;14.00;99.90;;;;;;4993866;28;20037;-78
2022/11/07 10:40:54;;;;;;;32.05;16.42;;;14.00;98.40;;;;;;5010272;28;20041;-79
2022/11/07 10:43:36;;;;;;;10.93;5.60;;;13.90;99.80;;;;;;5013459;28;20030;-77
2022/11/07 10:46:30;;;;;;;5.93;2.03;;;13.90;99.50;;;;;;5013372;28;20029;-77
2022/11/07 10:48:59;;;;;;;8.23;3.22;;;13.90;99.80;;;;;;4998035;28;20049;-79
2022/11/07 10:51:36;;;;;;;7.68;3.40;;;13.90;99.90;;;;;;5013449;28;20028;-78
2022/11/07 10:54:04;;;;;;;5.20;1.85;;;14.00;99.50;;;;;;5006097;28;20026;-76
2022/11/07 10:56:30;;;;;;;8.98;4.22;;;14.10;99.00;;;;;;5017871;28;20030;-77
2022/11/07 10:58:57;;;;;;;8.82;3.08;;;13.90;99.10;;;;;;5012649;28;20367;-80
2022/11/07 11:01:25;;;;;;;9.13;4.10;;;14.00;97.90;;;;;;5026114;28;20046;-82
2022/11/07 11:03:52;;;;;;;8.35;2.10;;;14.10;97.80;;;;;;5032123;28;20029;-78
2022/11/07 11:06:32;;;;;;;7.38;2.97;;;14.20;97.10;;;;;;5019689;28;20040;-78
2022/11/07 11:09:10;;;;;;;13.63;8.23;;;14.10;97.60;;;;;;5016322;28;20030;-77
2022/11/07 11:11:36;;;;;;;4.82;2.70;;;14.10;98.00;;;;;;5015055;28;20038;-77
2022/11/07 11:14:10;;;;;;;7.47;2.58;;;14.20;97.30;;;;;;5027635;28;20022;-75
2022/11/07 11:16:39;;;;;;;10.23;5.75;;;14.10;97.20;;;;;;5014606;28;20025;-77
2022/11/07 11:19:17;;;;;;;10.65;4.05;;;14.20;97.80;;;;;;5017488;28;20034;-78
2022/11/07 11:21:46;;;;;;;7.53;2.53;;;14.30;96.40;;;;;;5024146;28;20038;-77
2022/11/07 11:24:32;;;;;;;5.72;2.10;;;14.50;94.80;;;;;;5016679;28;20037;-76
2022/11/07 11:27:16;;;;;;;6.40;2.38;;;14.50;94.50;;;;;;5016142;28;20021;-79
2022/11/07 11:30:05;;;;;;;7.05;2.50;;;14.50;94.60;;;;;;5003364;28;20419;-76
2022/11/07 11:33:00;;;;;;;10.48;2.80;;;14.50;93.30;;;;;;5019900;28;20026;-76
2022/11/07 11:35:33;;;;;;;14.70;6.25;;;14.60;94.00;;;;;;5030390;28;20056;-77
2022/11/07 11:38:27;;;;;;;10.10;2.97;;;14.70;92.10;;;;;;5033243;28;20450;-76
2022/11/07 11:40:58;;;;;;;14.35;4.57;;;14.60;92.80;;;;;;5016431;28;20045;-77
2022/11/07 11:43:27;;;;;;;;;;;14.70;92.60;;;;;;5031763;28;20038;-78
2022/11/07 11:46:12;;;;;;;15.70;9.18;;;14.80;93.60;;;;;;5021486;28;19916;-78
2022/11/07 11:48:56;;;;;;;6.53;3.25;;;15.00;91.80;;;;;;5015093;28;20028;-76
2022/11/07 11:51:29;;;;;;;9.02;1.55;;;15.10;91.00;;;;;;5027206;28;20034;-77
2022/11/07 11:53:55;;;;;;;7.07;3.75;;;15.10;86.70;;;;;;5020107;28;20378;-77
2022/11/07 11:56:39;;;;;;;6.75;2.95;;;15.20;88.00;;;;;;5015482;28;20030;-77
2022/11/07 11:59:26;;;;;;;6.90;2.38;;;15.10;89.40;;;;;;5014156;28;20057;-76
2022/11/07 12:02:11;;;;;;;7.40;3.72;;;15.20;92.40;;;;;;5015226;28;20049;-77
2022/11/07 12:04:48;;;;;;;7.88;3.42;;;15.10;89.50;;;;;;5021963;28;20455;-77
2022/11/07 12:07:27;;;;;;;8.50;5.00;;;15.10;86.20;;;;;;5017766;28;20036;-77
2022/11/07 12:10:04;;;;;;;28.67;14.60;;;15.00;91.20;;;;;;5014047;28;20041;-77
2022/11/07 12:12:45;;;;;;;16.17;7.60;;;15.00;90.70;;;;;;5014899;28;20048;-78
2022/11/07 12:15:27;;;;;;;14.20;6.43;;;15.00;88.80;;;;;;5015468;28;20371;-78
2022/11/07 12:18:06;;;;;;;9.10;3.25;;;14.90;90.20;;;;;;5015228;28;20030;-77
2022/11/07 12:21:01;;;;;;;9.88;4.68;;;15.00;90.70;;;;;;5032758;28;20040;-77
2022/11/07 12:23:27;;;;;;;13.27;7.25;;;15.00;89.60;;;;;;5030027;28;20045;-78
2022/11/07 12:26:03;;;;;;;20.52;10.50;;;15.10;88.10;;;;;;4999325;28;20038;-78
2022/11/07 12:29:10;;;;;;;36.08;19.20;;;15.20;86.50;;;;;;5037236;28;20438;-77
2022/11/07 12:32:01;;;;;;;18.65;7.45;;;15.30;85.80;;;;;;4906572;29;20056;-76
2022/11/07 12:35:15;;;;;;;9.10;3.67;;;15.40;84.40;;;;;;5029733;28;20451;-76
2022/11/07 12:37:51;;;;;;;8.05;2.17;;;15.50;84.90;;;;;;4947335;28;20047;-76
2022/11/07 12:40:38;;;;;;;9.02;3.47;;;15.50;80.60;;;;;;5025745;28;20451;-77
2022/11/07 12:43:26;;;;;;;10.73;5.10;;;15.60;82.00;;;;;;4999502;28;20045;-79
2022/11/07 12:46:01;;;;;;;7.03;3.15;;;15.80;76.70;;;;;;5012854;28;20034;-81
2022/11/07 12:48:55;;;;;;;5.00;1.45;;;15.70;61.90;;;;;;5026334;28;20037;-77
2022/11/07 12:51:36;;;;;;;4.15;1.35;;;15.70;60.80;;;;;;5033409;28;20356;-77
2022/11/07 12:54:31;;;;;;;6.03;2.05;;;16.00;56.30;;;;;;5011648;28;20056;-77
2022/11/07 12:56:58;;;;;;;5.63;1.92;;;16.20;52.80;;;;;;5022435;28;20037;-77
2022/11/07 12:59:30;;;;;;;7.97;1.10;;;16.20;53.10;;;;;;5014633;28;20033;-77
2022/11/07 13:02:29;;;;;;;7.32;1.23;;;16.20;50.80;;;;;;5003209;28;20065;-77
2022/11/07 13:05:34;;;;;;;4.28;0.98;;;16.00;51.00;;;;;;4996234;28;20041;-77
2022/11/07 13:08:15;;;;;;;6.38;2.50;;;16.10;51.00;;;;;;5032481;28;20021;-80
2022/11/07 13:11:06;;;;;;;3.83;1.42;;;16.30;46.70;;;;;;5031971;28;20055;-76
2022/11/07 13:14:00;;;;;;;3.95;1.30;;;16.10;49.50;;;;;;5032390;28;20366;-77
2022/11/07 13:16:33;;;;;;;10.05;1.85;;;15.90;49.20;;;;;;5010069;28;20165;-80
2022/11/07 13:19:10;;;;;;;6.40;2.00;;;15.90;52.90;;;;;;4995068;28;20526;-77
2022/11/07 13:21:42;;;;;;;8.52;2.00;;;15.80;53.00;;;;;;4995613;28;20487;-77